createdAt,value
2022-10-24T00:02:24.266Z,99948.25
2022-10-24T00:04:50.788Z,99941.06
2022-10-24T00:07:17.462Z,99897.25
2022-10-24T00:09:43.936Z,99906.69
2022-10-24T00:12:10.440Z,99853.66
2022-10-24T00:14:36.930Z,99933.03
2022-10-24T00:17:03.955Z,99939.50
2022-10-24T00:19:30.550Z,99925.31
2022-10-24T00:21:56.954Z,99919.84
2022-10-24T00:24:25.204Z,99885.41
2022-10-24T00:26:52.092Z,99918.09
2022-10-24T00:29:18.864Z,99926.38
2022-10-24T00:31:45.306Z,99860.44
2022-10-24T00:34:11.858Z,99924.97
2022-10-24T00:36:38.333Z,99859.03
2022-10-24T00:39:04.788Z,99812.13
2022-10-24T00:41:37.085Z,99899.16
2022-10-24T00:44:17.555Z,99906.13
2022-10-24T00:46:53.309Z,99897.06
2022-10-24T00:49:24.877Z,99815.47
2022-10-24T00:51:54.537Z,99907.53
2022-10-24T00:54:21.454Z,99881.91
2022-10-24T00:57:15.218Z,99839.25
2022-10-24T00:59:43.446Z,99891.72
2022-10-24T01:02:10.313Z,99901.59
2022-10-24T01:04:36.958Z,99878.66
2022-10-24T01:07:09.533Z,99905.81
2022-10-24T01:10:08.794Z,99898.13
2022-10-24T01:12:35.194Z,99903.97
2022-10-24T01:15:23.919Z,99888.38
2022-10-24T01:18:18.179Z,99890.19
2022-10-24T01:21:13.413Z,99881.81
2022-10-24T01:23:55.682Z,99844.41
2022-10-24T01:26:44.489Z,99875.25
2022-10-24T01:29:20.412Z,99874.59
2022-10-24T01:31:51.134Z,99854.34
2022-10-24T01:34:25.874Z,99871.91
2022-10-24T01:37:01.951Z,99871.28
2022-10-24T01:39:33.410Z,99855.72
2022-10-24T01:42:01.153Z,99854.81
2022-10-24T01:44:31.426Z,99848.59
2022-10-24T01:47:04.096Z,99854.88
2022-10-24T01:49:34.170Z,99855.72
2022-10-24T01:52:03.379Z,99845.53
2022-10-24T01:54:30.942Z,99786.72
2022-10-24T01:56:58.141Z,99839.56
2022-10-24T01:59:30.499Z,99845.31
2022-10-24T02:02:12.446Z,99812.34
2022-10-24T02:04:42.832Z,99835.56
2022-10-24T02:07:10.113Z,99809.34
2022-10-24T02:09:38.593Z,99822.84
2022-10-24T02:12:07.847Z,99812.78
2022-10-24T02:14:36.748Z,99810.38
2022-10-24T02:17:03.622Z,99785.50
2022-10-24T02:19:31.346Z,99814.53
2022-10-24T02:22:21.066Z,99813.19
2022-10-24T02:24:56.030Z,99817.97
2022-10-24T02:27:30.013Z,99782.16
2022-10-24T02:30:09.910Z,99811.41
2022-10-24T02:32:42.569Z,99817.00
2022-10-24T02:35:10.429Z,99751.75
2022-10-24T02:37:40.957Z,99792.72
2022-10-24T02:40:09.167Z,99787.47
2022-10-24T02:42:37.043Z,99758.66
2022-10-24T02:45:04.766Z,99793.06
2022-10-24T02:47:31.543Z,99771.00
2022-10-24T02:49:57.954Z,99764.50
2022-10-24T02:52:24.696Z,99783.19
2022-10-24T02:54:51.247Z,99785.69
2022-10-24T02:57:17.763Z,99804.72
2022-10-24T02:59:44.283Z,99795.28
2022-10-24T03:02:10.794Z,99793.91
2022-10-24T03:04:37.241Z,99787.53
2022-10-24T03:07:03.678Z,99785.38
2022-10-24T03:09:30.100Z,99740.59
2022-10-24T03:11:56.513Z,99785.84
2022-10-24T03:14:22.957Z,99756.56
2022-10-24T03:16:49.507Z,99784.47
2022-10-24T03:19:15.931Z,99760.84
2022-10-24T03:21:42.465Z,99781.53
2022-10-24T03:24:09.472Z,99773.72
2022-10-24T03:26:35.951Z,99783.28
2022-10-24T03:29:02.438Z,99780.13
2022-10-24T03:31:30.693Z,99782.09
2022-10-24T03:33:57.626Z,99777.16
2022-10-24T03:36:24.411Z,99772.91
2022-10-24T03:38:50.834Z,99740.50
2022-10-24T03:41:17.383Z,99780.72
2022-10-24T03:43:43.834Z,99756.81
2022-10-24T03:46:10.344Z,99733.09
2022-10-24T03:48:36.865Z,99781.63
2022-10-24T03:51:03.459Z,99785.28
2022-10-24T03:53:29.893Z,99784.47
2022-10-24T03:55:57.340Z,99779.19
2022-10-24T03:58:24.349Z,99776.94
2022-10-24T04:00:51.031Z,99775.75
2022-10-24T04:03:17.593Z,99772.78
2022-10-24T04:05:44.094Z,99788.31
2022-10-24T04:08:10.624Z,99764.13
2022-10-24T04:10:37.088Z,99794.16
2022-10-24T04:13:03.910Z,99784.91
2022-10-24T04:15:31.100Z,99749.16
2022-10-24T04:17:57.602Z,99768.06
2022-10-24T04:20:24.118Z,99751.81
2022-10-24T04:22:50.714Z,99790.81
2022-10-24T04:25:17.732Z,99793.34
2022-10-24T04:27:45.477Z,99802.22
2022-10-24T04:30:16.588Z,99772.09
2022-10-24T04:32:43.780Z,99795.66
2022-10-24T04:35:10.434Z,99773.34
2022-10-24T04:37:36.967Z,99768.75
2022-10-24T04:40:04.196Z,99800.00
2022-10-24T04:42:30.873Z,99771.31
2022-10-24T04:44:57.442Z,99784.84
2022-10-24T04:47:24.057Z,99748.94
2022-10-24T04:49:50.521Z,99764.38
2022-10-24T04:52:16.979Z,99789.09
2022-10-24T04:54:43.477Z,99781.56
2022-10-24T04:57:09.892Z,99771.31
2022-10-24T04:59:36.345Z,99794.09
2022-10-24T05:02:02.832Z,99776.50
2022-10-24T05:04:29.442Z,99750.84
2022-10-24T05:06:55.971Z,99767.78
2022-10-24T05:09:22.447Z,99781.38
2022-10-24T05:11:48.942Z,99789.75
2022-10-24T05:14:15.425Z,99758.38
2022-10-24T05:16:41.994Z,99785.50
2022-10-24T05:19:08.451Z,99787.41
2022-10-24T05:21:35.053Z,99789.09
2022-10-24T05:24:01.495Z,99726.25
2022-10-24T05:26:28.590Z,99792.72
2022-10-24T05:28:55.160Z,99783.28
2022-10-24T05:31:21.791Z,99773.09
2022-10-24T05:33:48.284Z,99785.22
2022-10-24T05:36:14.817Z,99764.75
2022-10-24T05:38:41.325Z,99798.34
2022-10-24T05:41:07.764Z,99799.75
2022-10-24T05:43:34.267Z,99795.66
2022-10-24T05:46:00.778Z,99755.72
2022-10-24T05:48:27.257Z,99756.34
2022-10-24T05:50:57.907Z,99794.41
2022-10-24T05:53:25.919Z,99774.56
2022-10-24T05:55:52.440Z,99712.75
2022-10-24T05:58:21.292Z,99805.75
2022-10-24T06:00:54.017Z,99807.94
2022-10-24T06:03:20.981Z,99807.94
2022-10-24T06:05:47.478Z,99808.63
2022-10-24T06:08:13.965Z,99760.47
2022-10-24T06:10:40.476Z,99783.03
2022-10-24T06:13:07.180Z,99770.50
2022-10-24T06:15:33.732Z,99797.56
2022-10-24T06:18:00.527Z,99833.16
2022-10-24T06:20:26.975Z,99840.19
2022-10-24T06:22:53.466Z,99836.16
2022-10-24T06:25:19.981Z,99841.00
2022-10-24T06:27:46.522Z,99810.94
2022-10-24T06:30:12.966Z,99849.41
2022-10-24T06:32:43.554Z,99836.75
2022-10-24T06:35:13.282Z,99850.91
2022-10-24T06:37:41.789Z,99828.09
2022-10-24T06:40:11.352Z,99848.31
2022-10-24T06:42:37.829Z,99835.53
2022-10-24T06:45:04.699Z,99853.50
2022-10-24T06:47:32.104Z,99862.50
2022-10-24T06:49:58.598Z,99862.75
2022-10-24T06:52:25.083Z,99851.34
2022-10-24T06:54:51.751Z,99837.41
2022-10-24T06:57:18.233Z,99864.22
2022-10-24T06:59:44.889Z,99861.41
2022-10-24T07:02:15.963Z,99857.75
2022-10-24T07:04:42.678Z,99807.44
2022-10-24T07:07:15.003Z,99865.34
2022-10-24T07:09:41.610Z,99772.47
2022-10-24T07:12:08.353Z,99834.78
2022-10-24T07:14:35.065Z,99869.72
2022-10-24T07:17:01.542Z,99891.31
2022-10-24T07:19:28.002Z,99886.53
2022-10-24T07:21:54.610Z,99864.00
2022-10-24T07:24:22.584Z,99887.97
2022-10-24T07:26:49.042Z,99887.97
2022-10-24T07:29:15.510Z,99876.81
2022-10-24T07:31:41.930Z,99883.66
2022-10-24T07:34:09.089Z,99888.50
2022-10-24T07:36:40.104Z,99893.75
2022-10-24T07:39:09.415Z,99903.16
2022-10-24T07:41:37.916Z,99896.88
2022-10-24T07:44:04.521Z,99898.41
2022-10-24T07:46:31.422Z,99892.41
2022-10-24T07:48:58.030Z,99890.44
2022-10-24T07:51:27.952Z,99848.00
2022-10-24T07:53:54.643Z,99897.16
2022-10-24T07:56:22.072Z,99899.06
2022-10-24T07:58:48.658Z,99851.69
2022-10-24T08:01:20.862Z,99900.66
2022-10-24T08:03:47.677Z,99851.75
2022-10-24T08:06:17.674Z,99904.56
2022-10-24T08:08:44.507Z,99898.00
2022-10-24T08:11:21.888Z,99887.72
2022-10-24T08:13:50.074Z,99895.00
2022-10-24T08:16:18.756Z,99885.41
2022-10-24T08:18:45.390Z,99845.81
2022-10-24T08:21:14.621Z,99891.06
2022-10-24T08:23:43.424Z,99899.47
2022-10-24T08:26:13.714Z,99856.25
2022-10-24T08:28:41.025Z,99901.34
2022-10-24T08:31:10.823Z,99902.75
2022-10-24T08:33:37.670Z,99909.41
2022-10-24T08:36:07.552Z,99913.34
2022-10-24T08:38:33.986Z,99906.97
2022-10-24T08:41:00.600Z,99865.63
2022-10-24T08:43:27.221Z,99909.38
2022-10-24T08:46:12.024Z,99877.09
2022-10-24T08:48:45.882Z,99910.28
2022-10-24T08:51:25.883Z,99924.78
2022-10-24T08:53:53.701Z,99879.16
2022-10-24T08:56:20.806Z,99931.06
2022-10-24T08:58:47.558Z,99922.94
2022-10-24T09:01:32.005Z,99917.94
2022-10-24T09:04:00.369Z,99910.13
2022-10-24T09:06:29.284Z,99916.28
2022-10-24T09:09:21.332Z,99932.06
2022-10-24T09:11:56.296Z,99931.88
2022-10-24T09:14:28.580Z,99923.13
2022-10-24T09:16:59.387Z,99922.88
2022-10-24T09:19:28.909Z,99930.66
2022-10-24T09:21:56.998Z,99912.28
2022-10-24T09:24:48.438Z,99876.78
2022-10-24T09:27:18.246Z,99925.91
2022-10-24T09:29:45.049Z,99946.00
2022-10-24T09:32:17.450Z,99908.03
2022-10-24T09:34:44.406Z,99932.78
2022-10-24T09:37:32.491Z,99945.41
2022-10-24T09:40:16.215Z,99946.41
2022-10-24T09:42:54.850Z,99942.59
2022-10-24T09:45:42.164Z,99958.38
2022-10-24T09:48:19.547Z,99953.88
2022-10-24T09:50:47.930Z,99949.56
2022-10-24T09:53:22.714Z,99952.59
2022-10-24T09:55:52.254Z,99951.34
2022-10-24T09:58:21.364Z,99973.81
2022-10-24T10:01:20.817Z,99980.69
2022-10-24T10:04:02.831Z,99968.91
2022-10-24T10:06:33.046Z,99959.41
2022-10-24T10:08:59.793Z,99965.47
2022-10-24T10:11:31.568Z,100000.56
2022-10-24T10:14:01.479Z,99988.06
2022-10-24T10:16:29.873Z,99952.88
2022-10-24T10:19:17.504Z,99993.56
2022-10-24T10:22:00.215Z,99935.56
2022-10-24T10:24:32.611Z,99979.91
2022-10-24T10:26:59.080Z,99973.41
2022-10-24T10:29:25.692Z,99951.84
2022-10-24T10:32:07.774Z,99979.41
2022-10-24T10:34:47.514Z,99972.81
2022-10-24T10:37:24.153Z,100005.56
2022-10-24T10:39:50.573Z,99998.56
2022-10-24T10:42:23.766Z,99996.38
2022-10-24T10:44:56.448Z,100004.22
2022-10-24T10:47:35.490Z,100029.38
2022-10-24T10:50:15.437Z,100008.59
2022-10-24T10:52:49.205Z,100006.94
2022-10-24T10:55:21.782Z,100016.53
2022-10-24T10:57:51.218Z,100012.03
2022-10-24T11:00:23.283Z,100010.03
2022-10-24T11:03:06.689Z,100015.72
2022-10-24T11:05:36.126Z,100022.75
2022-10-24T11:08:21.462Z,100025.69
2022-10-24T11:10:53.261Z,100023.22
2022-10-24T11:13:24.864Z,99983.91
2022-10-24T11:15:55.156Z,100036.63
2022-10-24T11:18:29.448Z,99983.78
2022-10-24T11:21:09.118Z,100029.94
2022-10-24T11:26:41.596Z,100031.19
2022-10-24T11:29:31.593Z,100030.75
2022-10-24T11:32:07.937Z,100035.09
2022-10-24T11:34:45.740Z,100035.44
2022-10-24T11:37:19.518Z,100040.50
2022-10-24T11:39:57.879Z,100024.63
2022-10-24T11:42:37.786Z,100038.81
2022-10-24T11:45:14.916Z,99995.44
2022-10-24T11:47:47.376Z,100035.78
2022-10-24T11:50:25.600Z,100031.03
2022-10-24T11:52:55.971Z,100038.91
2022-10-24T11:55:37.177Z,100051.66
2022-10-24T11:58:06.033Z,100051.53
2022-10-24T12:00:55.711Z,100039.66
2022-10-24T12:03:44.011Z,100051.03
2022-10-24T12:06:19.012Z,100051.25
2022-10-24T12:09:15.030Z,100063.97
2022-10-24T12:12:21.677Z,100067.06
2022-10-24T12:15:11.959Z,100068.84
2022-10-24T12:17:41.392Z,100066.47
2022-10-24T12:20:14.082Z,100074.44
2022-10-24T12:22:43.385Z,100076.50
2022-10-24T12:25:19.223Z,100071.34
2022-10-24T12:27:53.154Z,100074.22
2022-10-24T12:30:21.905Z,100076.59
2022-10-24T12:32:50.068Z,100079.66
2022-10-24T12:35:31.962Z,100065.00
2022-10-24T12:37:59.186Z,100048.84
2022-10-24T12:40:47.585Z,100078.56
2022-10-24T12:43:16.949Z,100063.34
2022-10-24T12:45:43.505Z,100073.16
2022-10-24T12:48:26.313Z,100084.00
2022-10-24T12:51:22.113Z,100076.03
2022-10-24T12:54:02.961Z,100073.66
2022-10-24T12:56:31.165Z,100073.44
2022-10-24T12:59:21.152Z,100046.66
2022-10-24T13:01:49.489Z,100043.25
2022-10-24T13:05:04.276Z,100065.25
2022-10-24T13:08:12.556Z,100070.16
2022-10-24T13:11:08.555Z,100066.38
2022-10-24T13:13:54.981Z,100067.75
2022-10-24T13:16:40.037Z,100064.22
2022-10-24T13:19:06.539Z,100078.78
2022-10-24T13:21:52.225Z,100067.06
2022-10-24T13:24:19.953Z,100067.97
2022-10-24T13:26:58.249Z,100068.72
2022-10-24T13:29:27.831Z,100070.72
2022-10-24T13:32:18.660Z,100060.81
2022-10-24T13:34:50.299Z,100068.56
2022-10-24T13:37:23.941Z,100031.69
2022-10-24T13:39:54.795Z,100032.59
2022-10-24T13:42:28.923Z,100056.38
2022-10-24T13:45:03.416Z,100059.97
2022-10-24T13:47:32.786Z,100063.97
2022-10-24T13:49:59.330Z,100063.78
2022-10-24T13:52:28.542Z,100058.84
2022-10-24T13:55:18.407Z,100048.22
2022-10-24T13:58:08.506Z,100053.56
2022-10-24T14:00:38.376Z,100063.56
2022-10-24T14:03:10.359Z,100064.44
2022-10-24T14:05:48.161Z,100043.00
2022-10-24T14:08:28.742Z,100067.47
2022-10-24T14:10:56.022Z,100068.25
2022-10-24T14:13:24.185Z,100062.94
2022-10-24T14:15:54.350Z,100066.59
2022-10-24T14:18:21.395Z,100057.78
2022-10-24T14:20:54.673Z,100060.66
2022-10-24T14:23:30.988Z,100069.88
2022-10-24T14:26:16.019Z,100065.50
2022-10-24T14:28:45.140Z,100046.94
2022-10-24T14:31:24.745Z,100064.59
2022-10-24T14:33:53.817Z,100067.78
2022-10-24T14:36:23.352Z,100058.09
2022-10-24T14:38:51.638Z,100063.34
2022-10-24T14:41:32.315Z,100063.44
2022-10-24T14:43:59.199Z,100051.22
2022-10-24T14:46:40.121Z,100067.97
2022-10-24T14:49:28.182Z,100065.28
2022-10-24T14:52:16.290Z,100068.91
2022-10-24T14:55:05.074Z,100066.44
2022-10-24T14:57:33.486Z,100078.34
2022-10-24T15:00:07.101Z,100079.53
2022-10-24T15:02:42.191Z,100076.66
2022-10-24T15:05:27.546Z,100082.63
2022-10-24T15:08:22.075Z,100084.69
2022-10-24T15:10:49.261Z,100088.25
2022-10-24T15:13:21.608Z,100079.97
2022-10-24T15:15:55.206Z,100091.56
2022-10-24T15:18:32.998Z,100073.34
2022-10-24T15:21:11.275Z,100081.56
2022-10-24T15:23:45.805Z,100093.22
2022-10-24T15:26:16.721Z,100091.38
2022-10-24T15:28:47.836Z,100096.69
2022-10-24T15:31:16.941Z,100092.44
2022-10-24T15:33:43.913Z,100094.41
2022-10-24T15:36:34.206Z,100091.84
2022-10-24T15:39:03.734Z,100083.03
2022-10-24T15:41:30.291Z,100100.56
2022-10-24T15:43:57.272Z,100101.84
2022-10-24T15:46:24.404Z,100073.31
2022-10-24T15:48:51.002Z,100110.28
2022-10-24T15:51:20.017Z,100126.06
2022-10-24T15:53:47.571Z,100126.09
2022-10-24T15:56:14.070Z,100088.31
2022-10-24T15:58:40.692Z,100079.56
2022-10-24T16:01:08.383Z,100133.25
2022-10-24T16:03:35.370Z,100101.00
2022-10-24T16:06:04.402Z,100095.44
2022-10-24T16:08:31.243Z,100117.47
2022-10-24T16:10:57.837Z,100102.22
2022-10-24T16:13:24.401Z,100132.19
2022-10-24T16:15:51.010Z,100144.06
2022-10-24T16:18:17.568Z,100151.78
2022-10-24T16:20:44.070Z,100148.16
2022-10-24T16:23:11.543Z,100154.06
2022-10-24T16:25:38.240Z,100146.66
2022-10-24T16:28:07.419Z,100146.09
2022-10-24T16:30:36.299Z,100170.94
2022-10-24T16:33:03.094Z,100172.13
2022-10-24T16:35:33.443Z,100174.56
2022-10-24T16:38:01.037Z,100180.91
2022-10-24T16:40:28.431Z,100186.09
2022-10-24T16:42:56.759Z,100178.59
2022-10-24T16:45:24.365Z,100191.81
2022-10-24T16:47:50.962Z,100186.06
2022-10-24T16:50:26.267Z,100178.28
2022-10-24T16:52:54.066Z,100133.19
2022-10-24T16:55:21.511Z,100170.16
2022-10-24T16:57:48.465Z,100191.41
2022-10-24T17:00:17.233Z,100190.72
2022-10-24T17:02:49.395Z,100185.22
2022-10-24T17:05:15.939Z,100194.09
2022-10-24T17:07:43.324Z,100196.47
2022-10-24T17:10:11.759Z,100069.94
2022-10-24T17:12:42.016Z,100200.31
2022-10-24T17:15:09.557Z,100161.56
2022-10-24T17:17:36.212Z,100203.16
2022-10-24T17:20:03.260Z,100181.41
2022-10-24T17:22:30.058Z,100201.75
2022-10-24T17:24:57.043Z,100204.03
2022-10-24T17:27:23.611Z,100205.44
2022-10-24T17:29:50.313Z,100203.88
2022-10-24T17:32:17.203Z,100212.56
2022-10-24T17:34:45.258Z,100200.91
2022-10-24T17:37:48.720Z,100215.22
2022-10-24T17:40:18.959Z,100192.81
2022-10-24T17:42:47.980Z,100208.06
2022-10-24T17:45:17.073Z,100177.56
2022-10-24T17:47:43.967Z,100216.03
2022-10-24T17:50:11.777Z,100189.81
2022-10-24T17:52:43.419Z,100216.81
2022-10-24T17:55:27.843Z,100207.22
2022-10-24T17:58:05.154Z,100212.22
2022-10-24T18:00:31.707Z,100213.59
2022-10-24T18:03:01.319Z,100217.56
2022-10-24T18:05:34.118Z,100208.19
2022-10-24T18:08:00.648Z,100200.09
2022-10-24T18:10:27.212Z,100156.78
2022-10-24T18:12:53.818Z,100125.16
2022-10-24T18:15:20.783Z,100187.06
2022-10-24T18:17:47.995Z,100218.88
2022-10-24T18:20:15.603Z,100220.09
2022-10-24T18:22:43.500Z,100234.59
2022-10-24T18:25:12.921Z,100235.53
2022-10-24T18:27:39.451Z,100237.50
2022-10-24T18:30:06.826Z,100261.13
2022-10-24T18:32:34.162Z,100292.25
2022-10-24T18:35:01.142Z,100209.06
2022-10-24T18:37:27.875Z,100268.19
2022-10-24T18:39:54.625Z,100243.66
2022-10-24T18:42:33.327Z,100290.72
2022-10-24T18:45:00.244Z,100295.66
2022-10-24T18:47:27.329Z,100295.44
2022-10-24T18:49:54.466Z,100296.88
2022-10-24T18:52:40.993Z,100281.25
2022-10-24T18:55:16.897Z,100283.31
2022-10-24T18:57:43.823Z,100295.00
2022-10-24T19:00:12.552Z,100297.47
2022-10-24T19:02:43.410Z,100296.13
2022-10-24T19:05:23.403Z,100293.09
2022-10-24T19:07:50.853Z,100278.47
2022-10-24T19:10:27.549Z,100295.13
2022-10-24T19:12:54.449Z,100274.56
2022-10-24T19:15:21.525Z,100296.63
2022-10-24T19:17:48.690Z,100285.53
2022-10-24T19:20:18.821Z,100280.81
2022-10-24T19:22:46.086Z,100234.50
2022-10-24T19:25:13.674Z,100256.91
2022-10-24T19:27:40.510Z,100233.00
2022-10-24T19:30:07.663Z,100284.44
2022-10-24T19:32:34.202Z,100249.38
2022-10-24T19:35:00.841Z,100294.13
2022-10-24T19:37:27.386Z,100255.88
2022-10-24T19:39:54.002Z,100284.72
2022-10-24T19:42:20.480Z,100240.63
2022-10-24T19:47:20.964Z,100280.88
2022-10-24T19:49:47.821Z,100237.72
2022-10-24T19:52:14.448Z,100263.13
2022-10-24T19:54:40.933Z,100263.06
2022-10-24T19:57:07.433Z,100266.56
2022-10-24T19:59:35.922Z,100266.59
2022-10-24T20:02:03.894Z,100264.16
2022-10-24T20:04:31.117Z,100249.19
2022-10-24T20:06:57.597Z,100218.72
2022-10-24T20:09:24.223Z,100258.31
2022-10-24T20:11:50.674Z,100256.50
2022-10-24T20:14:17.221Z,100256.97
2022-10-24T20:16:46.512Z,100247.91
2022-10-24T20:19:12.959Z,100261.34
2022-10-24T20:21:39.501Z,100262.13
2022-10-24T20:24:06.418Z,100263.59
2022-10-24T20:26:33.240Z,100257.66
2022-10-24T20:28:59.721Z,100268.50
2022-10-24T20:31:34.988Z,100271.47
2022-10-24T20:34:07.122Z,100290.78
2022-10-24T20:36:35.664Z,100287.06
2022-10-24T20:39:03.449Z,100295.44
2022-10-24T20:41:30.006Z,100287.41
2022-10-24T20:43:56.619Z,100290.59
2022-10-24T20:46:23.499Z,100296.56
2022-10-24T20:48:50.519Z,100173.22
2022-10-24T20:51:18.528Z,100298.19
2022-10-24T20:53:45.122Z,100268.25
2022-10-24T20:56:13.631Z,100303.78
2022-10-24T20:58:41.967Z,100324.75
2022-10-24T21:01:17.065Z,100339.88
2022-10-24T21:03:44.033Z,100358.34
2022-10-24T21:06:21.587Z,100346.94
2022-10-24T21:08:53.913Z,100329.25
2022-10-24T21:11:25.148Z,100328.22
2022-10-24T21:13:53.270Z,100351.25
2022-10-24T21:16:20.114Z,100353.72
2022-10-24T21:18:46.626Z,100342.25
2022-10-24T21:21:14.564Z,100320.63
2022-10-24T21:23:41.343Z,100336.50
2022-10-24T21:26:11.372Z,100322.09
2022-10-24T21:28:37.956Z,100320.13
2022-10-24T21:31:09.363Z,100352.63
2022-10-24T21:33:36.736Z,100373.03
2022-10-24T21:36:08.405Z,100363.72
2022-10-24T21:38:35.146Z,100372.78
2022-10-24T21:41:09.744Z,100368.38
2022-10-24T21:43:38.845Z,100367.97
2022-10-24T21:46:12.677Z,100371.25
2022-10-24T21:48:40.618Z,100370.69
2022-10-24T21:51:12.656Z,100368.78
2022-10-24T21:53:41.176Z,100335.44
2022-10-24T21:56:09.888Z,100374.63
2022-10-24T21:58:36.739Z,100360.00
2022-10-24T22:01:13.832Z,100346.09
2022-10-24T22:03:42.093Z,100321.59
2022-10-24T22:17:12.555Z,100357.69
2022-10-24T22:19:38.985Z,100356.94
2022-10-24T22:22:05.433Z,100381.72
2022-10-24T22:24:31.939Z,100386.63
2022-10-24T22:26:58.359Z,100385.25
2022-10-24T22:29:24.880Z,100388.59
2022-10-24T22:31:52.938Z,100392.81
2022-10-24T22:34:22.926Z,100397.56
2022-10-24T22:36:52.440Z,100388.31
2022-10-24T22:39:21.447Z,100397.97
2022-10-24T22:41:48.578Z,100384.94
2022-10-24T22:44:17.186Z,100386.59
2022-10-24T22:46:55.819Z,100394.94
2022-10-24T22:49:44.040Z,100386.25
2022-10-24T22:52:11.460Z,100402.16
2022-10-24T22:54:38.917Z,100402.31
2022-10-24T22:57:05.914Z,100408.34
2022-10-24T23:03:25.851Z,100400.84
2022-10-24T23:06:00.136Z,100400.78
2022-10-24T23:08:33.692Z,100388.44
2022-10-24T23:11:00.555Z,100404.63
2022-10-24T23:13:27.414Z,100413.81
2022-10-24T23:15:54.649Z,100420.16
2022-10-24T23:18:21.415Z,100388.50
2022-10-24T23:21:03.704Z,100429.66
2022-10-24T23:23:33.117Z,100437.59
2022-10-24T23:26:12.824Z,100432.97
2022-10-24T23:28:59.247Z,100436.31
2022-10-24T23:31:25.951Z,100439.97
2022-10-24T23:33:52.683Z,100432.03
2022-10-24T23:36:25.039Z,100402.06
2022-10-24T23:38:55.013Z,100445.75
2022-10-24T23:41:21.735Z,100393.31
2022-10-24T23:43:48.364Z,100437.53
2022-10-24T23:46:34.205Z,100440.72
2022-10-24T23:49:19.389Z,100441.00
2022-10-24T23:52:17.805Z,100443.50
2022-10-24T23:54:44.543Z,100445.84
2022-10-24T23:57:15.952Z,100409.19
2022-10-24T23:59:42.968Z,100444.66
